West Andover, Ohio
Current Conditions -  °F | °C
As of 11:53 AM on Saturday 25 Oct 2014 (Local Time) from KHZY Reporting Station
Overcast Overcast  
Wind Chill: 62°   Ceiling: 4900
Heat Index: 62°   Visibility: 9mi
Dew Point: 50°   Wind: 13mph
Humidity: 65%   Direction: 220°SW
Pressure: 29.8"   Gusts: NA
Location:  41.6317°N, 80.577°W
Report Text: KHZY 251553Z AUTO 22011KT 9SM BKN049 OVC060 17/10 A2980 RMK AO2 SLP089 T01670100
Loading
Personal Weather Stations






























Interactive Weather Map
Tropical Storm Tracking
New forecast layout! Learn more

10-Day Weather Forecast

Advertisements
Track Severe Weather on mobile